Etusivu
METAR-TAF:

METAR-TAF

Lentoasemat :

Jönköping, Ruotsi

Leveyspiiri: 57-46N, Pituuspiiri: 014-05E, korkeus merenpinnasta: 226 m

Tämänhetkinen sää

Tämä raportti tehtiin 21 minuuttia sitten, kello 02.50 UTC
Tuuli 11 kn pohjoisesta
Lämpötila 1°C
Kosteus 93%
Ilmanpaine 1008 hPa
Näkyvyys: 2400 m
heikkoa sadetta, lumisadetta

METAR: ESGJ 110250Z AUTO 35011KT 2400 -RASN BKN005/// OVC006/// 01/00 Q1008

Aika: 04:11 (03:11 UTC)

Sääennuste

Tämä raportti tehtiin 3 tuntia ja 41 minuuttia sitten, kello 23.30 UTC
Ennuste voimassa 11. päivästä klo 00 UTC - 11. päivään klo 02 UTC
Tuuli 10 kn pohjoisesta
Näkyvyys: 5000 m
Hajonneita pilviä 1500 ft:n korkeudessa
heikkoa lumisadetta
Ajoittain
11. päivästä klo 00 UTC - 11. päivään klo 02 UTC
Näkyvyys: 2500 m
400 ft:n korkeudessa
lumisadetta

TAF: ESGJ 102330Z 1100/1102 35010KT 5000 -SN BKN015 TEMPO 1100/1102 2500 SN VV004

Säähavainnot ja -ennusteet yli 4000 lentoasemalta (METAR- ja TAF-raportit).

Käytössä olevat sääasemat on merkitty karttaan keltaisilla ja punaisilla pisteillä.

Aseta hiiri pisteen päälle nähdäksesi sääaseman nimen.

Klikkaa sitten nähdäksesi säähavainnot ja -ennusteet.

Kartan vaihtaminen: klikkaa mustalla rastilla varustettuja vihreitä pisteitä, niin voit zoomata sisään; viivalla varustettua vihreää pistettä, niin voit zoomata ulos tai vihreitä nuolia, niin pääset viereisille kartoille.


METAR-TAF: